RJCC Airport Information

Runway Information
Runway 01R Length 9840 ft width 200 ft
Elevation 57 ft Threshold ft Heading 353
Runway 19L Length 9840 ft Width 200 ft
Elevation 77 ft Threshold ft Heading 173
Runway 01L Length 9840 ft width 200 ft
Elevation 62 ft Threshold ft Heading 353
Runway 19R Length 9840 ft Width 200 ft
Elevation 82 ft Threshold ft Heading 173
Airport Frequencies
Type APP Name CHITOSE AP Frequency 120.1 MHZ
Type ATIS Name ATIS Frequency 128.6 MHZ
Type CLD Name CHITOSE CL Frequency 121.9 MHZ
Type DEP Name CHITOSE DE Frequency 124.7 MHZ
Type GND Name CHITOSE GN Frequency 121.6 MHZ
Type TCA Name TCA Frequency 127.7 MHZ
Type TWR Name CHITOSE TW Frequency 118.8 MHZ
Airport Navaids
Type VOR-DME Name Mukawa Frequency 116400 KHZ
Type NDB Name Naganuma Frequency 377 KHZ
Airport Weather Information & NOTAM
ADDS - METARS form results

(0726 UTC 27 September 2022)
Data provider http://aviationweather.gov/metar/data/
 
METAR text: RJCC 270700Z 34012KT 9999 FEW020 BKN/// 23/14 Q1015 RMK 1CU020 A2999
Conditions at: RJCC (CHITOSE (JASDF/C, JP) observed 0700 UTC 27 September 2022
Temperature: 23.0°C (73°F)
Dewpoint: 14.0°C (57°F) [RH = 57%]
Pressure (altimeter): 29.97 inches Hg (1015.0 mb)
Winds: from the NNW (340 degrees) at 14 MPH (12 knots; 6.2 m/s)
Visibility: 6 or more miles (10+ km)
Ceiling: at least 12,000 feet AGL
Clouds: few clouds at 2000 feet AGL
Weather: no significant weather observed at this time

METAR text: RJCC 270630Z 33011KT 9999 FEW030 BKN/// 24/14 Q1015 RMK 1CU030 A2998
Conditions at: RJCC (CHITOSE (JASDF/C, JP) observed 0630 UTC 27 September 2022
Temperature: 24.0°C (75°F)
Dewpoint: 14.0°C (57°F) [RH = 54%]
Pressure (altimeter): 29.97 inches Hg (1015.0 mb)
Winds: from the NNW (330 degrees) at 13 MPH (11 knots; 5.7 m/s)
Visibility: 6 or more miles (10+ km)
Ceiling: at least 12,000 feet AGL
Clouds: few clouds at 3000 feet AGL
Weather: no significant weather observed at this time

Forecast for: RJCC (CHITOSE (JASDF/C, JP)
Text: TAF RJCC 270505Z 2706/2812 35010KT 9999 FEW030
Forecast period: 0600 to 2100 UTC 27 September 2022
Forecast type: FROM: standard forecast or significant change
Winds: from the N (350 degrees) at 12 MPH (10 knots; 5.1 m/s)
Visibility: 6 or more miles (10+ km)
Ceiling: at least 12,000 feet AGL
Clouds: few clouds at 3000 feet AGL
Weather: no significant weather forecast for this period
Text: BECMG 2721/2800 18010KT
Forecast period: 2100 UTC 27 September 2022 to 1200 UTC 28 September 2022
Forecast type: BECOMING: Conditions expected to become as follows by 0000 UTC 28 September 2022
Winds: from the S (180 degrees) at 12 MPH (10 knots; 5.1 m/s)
Visibility: 6 or more miles (10+ km)
Ceiling: at least 12,000 feet AGL
Clouds: few clouds at 3000 feet AGL
Weather: no significant weather forecast for this period